createdAt,value
2019-02-12T00:00:00.959Z,3.70
2019-02-12T00:01:00.945Z,3.00
2019-02-12T00:02:00.948Z,3.50
2019-02-12T00:03:00.929Z,3.00
2019-02-12T00:04:00.931Z,3.80
2019-02-12T00:05:00.906Z,3.50
2019-02-12T00:06:00.898Z,3.60
2019-02-12T00:07:00.885Z,3.20
2019-02-12T00:08:00.868Z,3.50
2019-02-12T00:09:00.876Z,3.00
2019-02-12T00:10:00.851Z,3.40
2019-02-12T00:11:00.841Z,2.90
2019-02-12T00:12:00.830Z,3.90
2019-02-12T00:13:00.821Z,3.30
2019-02-12T00:14:00.829Z,3.40
2019-02-12T00:15:00.799Z,3.40
2019-02-12T00:16:00.790Z,3.10
2019-02-12T00:17:00.775Z,3.40
2019-02-12T00:18:00.762Z,3.50
2019-02-12T00:19:00.776Z,3.10
2019-02-12T00:20:00.739Z,3.70
2019-02-12T00:21:08.763Z,3.30
2019-02-12T00:22:01.720Z,4.00
2019-02-12T00:23:00.708Z,3.40
2019-02-12T00:24:00.717Z,3.00
2019-02-12T00:25:00.700Z,2.80
2019-02-12T00:26:00.672Z,3.40
2019-02-12T00:27:00.679Z,3.30
2019-02-12T00:28:00.646Z,3.20
2019-02-12T00:29:00.637Z,2.90
2019-02-12T00:30:00.627Z,3.50
2019-02-12T00:31:00.621Z,3.40
2019-02-12T00:32:00.630Z,4.20
2019-02-12T00:33:00.593Z,3.40
2019-02-12T00:34:00.587Z,3.30
2019-02-12T00:35:00.592Z,4.20
2019-02-12T00:36:00.566Z,3.40
2019-02-12T00:37:00.549Z,3.60
2019-02-12T00:38:00.546Z,3.60
2019-02-12T00:39:00.523Z,3.50
2019-02-12T00:40:00.530Z,3.40
2019-02-12T00:41:00.503Z,3.80
2019-02-12T00:42:00.490Z,3.90
2019-02-12T00:43:00.497Z,3.20
2019-02-12T00:44:00.475Z,3.20
2019-02-12T00:45:00.483Z,4.10
2019-02-12T00:46:00.449Z,3.80
2019-02-12T00:47:00.435Z,3.30
2019-02-12T00:48:00.445Z,3.50
2019-02-12T00:49:00.413Z,3.30
2019-02-12T00:50:00.421Z,3.60
2019-02-12T00:51:00.390Z,3.70
2019-02-12T00:52:00.385Z,3.50
2019-02-12T00:53:00.373Z,3.60
2019-02-12T00:54:00.378Z,3.20
2019-02-12T00:55:00.366Z,2.90
2019-02-12T00:56:00.340Z,3.90
2019-02-12T00:57:00.325Z,3.30
2019-02-12T00:58:00.311Z,3.90
2019-02-12T00:59:00.302Z,3.50
2019-02-12T01:00:00.327Z,3.80
2019-02-12T01:01:00.285Z,3.30
2019-02-12T01:02:00.272Z,3.60
2019-02-12T01:03:00.260Z,3.40
2019-02-12T01:04:00.266Z,3.50
2019-02-12T01:05:00.270Z,4.10
2019-02-12T01:06:00.225Z,3.60
2019-02-12T01:07:00.213Z,3.80
2019-02-12T01:08:00.201Z,3.50
2019-02-12T01:09:00.197Z,3.30
2019-02-12T01:10:00.222Z,3.40
2019-02-12T01:11:00.171Z,3.30
2019-02-12T01:12:00.173Z,3.70
2019-02-12T01:13:00.153Z,3.50
2019-02-12T01:14:00.156Z,3.70
2019-02-12T01:15:00.216Z,3.50
2019-02-12T01:16:00.163Z,3.60
2019-02-12T01:17:00.099Z,3.50
2019-02-12T01:18:00.092Z,3.50
2019-02-12T01:19:00.081Z,3.80
2019-02-12T01:20:00.104Z,3.30
2019-02-12T01:21:00.075Z,3.60
2019-02-12T01:22:00.041Z,4.00
2019-02-12T01:23:00.038Z,3.70
2019-02-12T01:24:00.019Z,3.60
2019-02-12T01:25:00.015Z,3.30
2019-02-12T01:26:00.027Z,3.60
2019-02-12T01:26:59.991Z,3.60
2019-02-12T01:27:59.976Z,4.00
2019-02-12T01:28:59.973Z,5.00
2019-02-12T01:29:59.963Z,3.50
2019-02-12T01:30:59.968Z,3.70
2019-02-12T01:31:59.932Z,3.80
2019-02-12T01:32:59.917Z,3.20
2019-02-12T01:33:59.908Z,3.50
2019-02-12T01:34:59.931Z,4.20
2019-02-12T01:35:59.910Z,3.00
2019-02-12T01:36:59.878Z,3.30
2019-02-12T01:37:59.872Z,3.70
2019-02-12T01:38:59.857Z,3.50
2019-02-12T01:39:59.843Z,3.60
2019-02-12T01:40:59.851Z,3.30
2019-02-12T01:41:59.821Z,3.10
2019-02-12T01:42:59.817Z,3.90
2019-02-12T01:43:59.799Z,3.30
2019-02-12T01:44:59.790Z,4.30
2019-02-12T01:45:59.797Z,3.70
2019-02-12T01:46:59.766Z,3.10
2019-02-12T01:47:59.753Z,3.50
2019-02-12T01:48:59.746Z,3.70
2019-02-12T01:49:59.732Z,3.30
2019-02-12T01:50:59.738Z,3.20
2019-02-12T01:51:59.708Z,4.00
2019-02-12T01:52:59.698Z,3.20
2019-02-12T01:53:59.698Z,3.70
2019-02-12T01:54:59.676Z,3.20
2019-02-12T01:55:59.681Z,3.10
2019-02-12T01:56:59.655Z,3.50
2019-02-12T01:57:59.643Z,2.90
2019-02-12T01:58:59.635Z,3.50
2019-02-12T01:59:59.619Z,3.50
2019-02-12T02:00:59.627Z,3.40
2019-02-12T02:01:59.597Z,3.30
2019-02-12T02:02:59.592Z,2.90
2019-02-12T02:03:59.587Z,3.30
2019-02-12T02:04:59.569Z,3.20
2019-02-12T02:05:59.589Z,3.60
2019-02-12T02:06:59.547Z,3.10
2019-02-12T02:07:59.527Z,3.40
2019-02-12T02:08:59.533Z,3.10
2019-02-12T02:09:59.511Z,2.90
2019-02-12T02:10:59.527Z,3.60
2019-02-12T02:11:59.488Z,3.10
2019-02-12T02:12:59.473Z,3.10
2019-02-12T02:13:59.469Z,3.40
2019-02-12T02:14:59.458Z,3.00
2019-02-12T02:15:59.449Z,3.50
2019-02-12T02:16:59.451Z,2.80
2019-02-12T02:17:59.417Z,2.80
2019-02-12T02:18:59.410Z,3.00
2019-02-12T02:19:59.399Z,3.30
2019-02-12T02:20:59.391Z,3.30
2019-02-12T02:21:59.391Z,3.10
2019-02-12T02:22:59.365Z,2.90
2019-02-12T02:23:59.350Z,3.20
2019-02-12T02:24:59.346Z,3.00
2019-02-12T02:25:59.335Z,3.30
2019-02-12T02:26:59.340Z,3.50
2019-02-12T02:27:59.315Z,2.80
2019-02-12T02:28:59.301Z,3.20
2019-02-12T02:29:59.290Z,3.00
2019-02-12T02:30:59.273Z,3.30
2019-02-12T02:31:59.283Z,2.90
2019-02-12T02:32:59.252Z,2.80
2019-02-12T02:33:59.251Z,3.30
2019-02-12T02:34:59.229Z,2.80
2019-02-12T02:35:59.220Z,3.50
2019-02-12T02:36:59.230Z,2.90
2019-02-12T02:37:59.196Z,2.60
2019-02-12T02:38:59.191Z,3.30
2019-02-12T02:39:59.178Z,2.70
2019-02-12T02:40:59.162Z,2.70
2019-02-12T02:41:59.181Z,2.60
2019-02-12T02:42:59.151Z,2.80
2019-02-12T02:43:59.132Z,3.30
2019-02-12T02:44:59.125Z,3.00
2019-02-12T02:45:59.105Z,3.10
2019-02-12T02:46:59.104Z,2.80
2019-02-12T02:47:59.456Z,3.00
2019-02-12T02:48:59.079Z,2.60
2019-02-12T02:49:59.064Z,3.10
2019-02-12T02:50:59.077Z,2.80
2019-02-12T02:51:59.041Z,2.80
2019-02-12T02:52:59.049Z,2.60
2019-02-12T02:53:59.019Z,2.80
2019-02-12T02:54:59.007Z,2.90
2019-02-12T02:55:58.993Z,3.00
2019-02-12T02:56:58.991Z,3.10
2019-02-12T02:57:58.990Z,3.30
2019-02-12T02:58:58.964Z,2.80
2019-02-12T02:59:58.951Z,2.60
2019-02-12T03:00:58.941Z,2.80
2019-02-12T03:01:58.937Z,2.60
2019-02-12T03:02:58.940Z,3.30
2019-02-12T03:03:58.905Z,3.20
2019-02-12T03:04:58.895Z,3.30
2019-02-12T03:05:58.895Z,3.30
2019-02-12T03:06:58.877Z,3.20
2019-02-12T03:07:58.891Z,3.00
2019-02-12T03:08:58.849Z,3.20
2019-02-12T03:09:58.840Z,3.50
2019-02-12T03:10:58.837Z,3.30
2019-02-12T03:11:58.823Z,3.20
2019-02-12T03:12:58.828Z,2.80
2019-02-12T03:13:58.805Z,3.30
2019-02-12T03:14:58.790Z,3.30
2019-02-12T03:15:58.775Z,3.20
2019-02-12T03:16:58.776Z,3.40
2019-02-12T03:17:58.775Z,3.20
2019-02-12T03:18:58.740Z,3.50
2019-02-12T03:19:58.733Z,3.50
2019-02-12T03:20:58.716Z,3.50
2019-02-12T03:22:03.628Z,3.60
2019-02-12T03:22:59.722Z,3.10
2019-02-12T03:23:58.681Z,3.20
2019-02-12T03:24:58.673Z,3.10
2019-02-12T03:25:58.662Z,3.10
2019-02-12T03:26:58.649Z,3.30
2019-02-12T03:27:58.658Z,3.50
2019-02-12T03:28:58.630Z,3.10
2019-02-12T03:29:58.626Z,2.80
2019-02-12T03:30:58.612Z,3.40
2019-02-12T03:31:58.608Z,3.30
2019-02-12T03:32:58.586Z,2.70
2019-02-12T03:33:58.604Z,3.00
2019-02-12T03:34:58.563Z,3.70
2019-02-12T03:35:58.551Z,3.00
2019-02-12T03:36:58.547Z,2.70
2019-02-12T03:37:58.531Z,3.10
2019-02-12T03:38:58.537Z,2.80
2019-02-12T03:39:58.505Z,2.90
2019-02-12T03:40:58.494Z,3.20
2019-02-12T03:41:58.484Z,3.50
2019-02-12T03:42:58.471Z,2.80
2019-02-12T03:43:58.498Z,3.10
2019-02-12T03:44:58.453Z,3.20
2019-02-12T03:45:58.442Z,3.20
2019-02-12T03:46:58.431Z,3.60
2019-02-12T03:47:58.421Z,3.50
2019-02-12T03:48:58.427Z,3.90
2019-02-12T03:49:58.399Z,3.60
2019-02-12T03:50:58.383Z,3.90
2019-02-12T03:51:58.373Z,3.50
2019-02-12T03:52:58.362Z,4.10
2019-02-12T03:53:58.367Z,4.10
2019-02-12T03:54:58.337Z,3.60
2019-02-12T03:55:58.327Z,3.50
2019-02-12T03:56:58.314Z,3.70
2019-02-12T03:57:58.306Z,3.90
2019-02-12T03:58:58.330Z,3.70
2019-02-12T03:59:58.279Z,3.20
2019-02-12T04:00:58.272Z,3.70
2019-02-12T04:01:58.261Z,3.60
2019-02-12T04:02:58.254Z,3.50
2019-02-12T04:03:58.265Z,3.60
2019-02-12T04:04:58.225Z,3.40
2019-02-12T04:05:58.219Z,2.80
2019-02-12T04:06:58.205Z,3.50
2019-02-12T04:07:58.192Z,3.00
2019-02-12T04:08:58.343Z,3.00
2019-02-12T04:09:58.175Z,3.30
2019-02-12T04:10:58.163Z,3.60
2019-02-12T04:11:58.152Z,2.80
2019-02-12T04:12:58.134Z,2.80
2019-02-12T04:13:58.145Z,3.50
2019-02-12T04:14:58.127Z,3.20
2019-02-12T04:15:58.111Z,3.50
2019-02-12T04:16:58.100Z,2.80
2019-02-12T04:17:58.083Z,4.00
2019-02-12T04:18:58.090Z,3.20
2019-02-12T04:19:58.063Z,3.30
2019-02-12T04:20:58.051Z,3.40
2019-02-12T04:21:58.047Z,3.30
2019-02-12T04:22:58.045Z,3.30
2019-02-12T04:23:58.033Z,3.60
2019-02-12T04:24:58.009Z,3.50
2019-02-12T04:25:57.991Z,3.30
2019-02-12T04:26:57.987Z,4.10
2019-02-12T04:27:58.034Z,3.70
2019-02-12T04:28:57.965Z,3.20
2019-02-12T04:29:57.970Z,3.20
2019-02-12T04:30:57.936Z,2.90
2019-02-12T04:31:57.933Z,3.30
2019-02-12T04:32:57.915Z,3.40
2019-02-12T04:33:57.904Z,3.20
2019-02-12T04:34:57.907Z,3.40
2019-02-12T04:35:57.882Z,3.00
2019-02-12T04:36:57.869Z,3.70
2019-02-12T04:37:57.870Z,3.30
2019-02-12T04:38:57.854Z,3.60
2019-02-12T04:39:57.852Z,3.70
2019-02-12T04:40:57.832Z,3.30
2019-02-12T04:41:57.815Z,3.30
2019-02-12T04:42:57.810Z,3.30
2019-02-12T04:43:57.792Z,3.20
2019-02-12T04:44:57.803Z,4.00
2019-02-12T04:45:57.773Z,3.70
2019-02-12T04:46:57.760Z,3.20
2019-02-12T04:47:57.754Z,3.60
2019-02-12T04:51:28.349Z,4.30
2019-02-12T04:52:54.811Z,3.70
2019-02-12T04:53:28.763Z,3.60
2019-02-12T04:54:27.186Z,3.50
2019-02-12T04:55:27.190Z,3.50
2019-02-12T04:56:27.167Z,4.00
2019-02-12T04:57:27.156Z,3.40
2019-02-12T04:58:27.148Z,3.30
2019-02-12T04:59:27.129Z,3.20
2019-02-12T05:00:27.138Z,3.10
2019-02-12T05:01:27.113Z,3.00
2019-02-12T05:02:27.096Z,3.30
2019-02-12T05:03:27.094Z,3.30
2019-02-12T05:04:27.079Z,3.20
2019-02-12T05:05:27.092Z,2.90
2019-02-12T05:06:27.055Z,3.10
2019-02-12T05:07:27.051Z,3.10
2019-02-12T05:08:27.156Z,3.30
2019-02-12T05:09:27.040Z,3.40
2019-02-12T05:10:27.036Z,3.40
2019-02-12T05:11:27.002Z,3.40
2019-02-12T05:12:26.996Z,3.50
2019-02-12T05:13:26.981Z,3.20
2019-02-12T05:14:26.965Z,3.10
2019-02-12T05:15:26.976Z,3.40
2019-02-12T05:16:26.964Z,2.70
2019-02-12T05:17:26.936Z,3.40
2019-02-12T05:18:26.928Z,3.10
2019-02-12T05:19:26.915Z,3.10
2019-02-12T05:20:26.900Z,3.10
2019-02-12T05:21:26.908Z,3.30
2019-02-12T05:22:26.882Z,3.40
2019-02-12T05:23:26.870Z,2.90
2019-02-12T05:24:26.857Z,3.10
2019-02-12T05:25:26.865Z,3.40
2019-02-12T05:26:26.866Z,3.30
2019-02-12T05:27:26.829Z,3.30
2019-02-12T05:28:26.821Z,3.20
2019-02-12T05:29:26.810Z,3.10
2019-02-12T05:30:33.465Z,2.80
2019-02-12T05:31:26.801Z,2.90
2019-02-12T05:32:26.774Z,2.80
2019-02-12T05:33:26.759Z,3.40
2019-02-12T05:34:26.754Z,2.90
2019-02-12T05:35:26.753Z,3.30
2019-02-12T05:36:26.752Z,3.20
2019-02-12T05:37:26.711Z,3.10
2019-02-12T05:38:26.701Z,3.70
2019-02-12T05:39:26.700Z,2.50
2019-02-12T05:40:26.685Z,3.00
2019-02-12T05:41:26.829Z,3.10
2019-02-12T05:42:26.662Z,3.40
2019-02-12T05:43:26.650Z,3.00
2019-02-12T05:44:26.638Z,3.20
2019-02-12T05:45:26.625Z,3.30
2019-02-12T05:46:26.647Z,3.30
2019-02-12T05:47:26.603Z,3.10
2019-02-12T05:48:26.611Z,2.80
2019-02-12T05:49:26.583Z,2.70
2019-02-12T05:50:26.596Z,2.80
2019-02-12T05:51:26.615Z,3.30
2019-02-12T05:52:26.555Z,3.10
2019-02-12T05:53:26.539Z,3.20
2019-02-12T05:54:26.532Z,2.90
2019-02-12T05:55:26.517Z,3.30
2019-02-12T05:56:26.531Z,3.60
2019-02-12T05:57:26.496Z,3.30
2019-02-12T05:58:26.483Z,3.40
2019-02-12T05:59:26.475Z,3.40
2019-02-12T06:00:26.471Z,3.80
2019-02-12T06:01:26.453Z,3.60
2019-02-12T06:02:26.462Z,3.40
2019-02-12T06:03:26.434Z,4.30
2019-02-12T06:04:26.443Z,3.50
2019-02-12T06:05:26.410Z,3.50
2019-02-12T06:06:26.401Z,3.40
2019-02-12T06:07:26.412Z,3.30
2019-02-12T06:08:26.376Z,4.00
2019-02-12T06:09:33.305Z,4.50
2019-02-12T06:10:26.386Z,3.60
2019-02-12T06:20:40.197Z,3.60
2019-02-12T06:21:41.129Z,3.70
2019-02-12T06:25:09.318Z,3.50
2019-02-12T06:26:09.186Z,4.30
2019-02-12T06:27:09.166Z,3.50
2019-02-12T06:28:16.154Z,4.30
2019-02-12T06:29:09.146Z,3.50
2019-02-12T06:32:48.488Z,3.70
2019-02-12T06:43:18.810Z,4.50
2019-02-12T06:44:18.777Z,4.30
2019-02-12T06:45:18.773Z,4.10
2019-02-12T06:46:18.826Z,4.10
2019-02-12T06:47:18.748Z,3.60
2019-02-12T06:48:18.756Z,3.40
2019-02-12T06:49:18.724Z,3.30
2019-02-12T06:50:18.714Z,3.40
2019-02-12T06:51:18.705Z,3.10
2019-02-12T06:52:18.717Z,3.60
2019-02-12T06:53:18.696Z,3.40
2019-02-12T06:54:18.677Z,3.80
2019-02-12T06:55:18.658Z,3.20
2019-02-12T06:56:18.644Z,3.60
2019-02-12T06:57:18.632Z,3.30
2019-02-12T06:58:18.647Z,3.10
2019-02-12T06:59:18.612Z,3.40
2019-02-12T07:00:18.616Z,3.30
2019-02-12T07:01:18.593Z,3.10
2019-02-12T07:02:18.590Z,3.10
2019-02-12T07:03:18.570Z,3.40
2019-02-12T07:04:18.579Z,3.60
2019-02-12T07:05:18.550Z,3.30
2019-02-12T07:06:18.533Z,3.10
2019-02-12T07:07:18.544Z,3.20
2019-02-12T07:08:18.515Z,3.30
2019-02-12T07:09:18.523Z,3.40
2019-02-12T07:10:18.498Z,3.60
2019-02-12T07:11:18.484Z,3.40
2019-02-12T07:12:18.467Z,3.10
2019-02-12T07:13:18.461Z,4.20
2019-02-12T07:14:18.467Z,3.40
2019-02-12T07:15:18.437Z,3.70
2019-02-12T07:16:18.477Z,3.40
2019-02-12T07:17:18.420Z,3.40
2019-02-12T07:18:18.404Z,3.60
2019-02-12T07:19:18.410Z,3.70
2019-02-12T07:20:19.282Z,3.50
2019-02-12T07:21:18.369Z,3.50
2019-02-12T07:22:18.357Z,3.40
2019-02-12T07:23:21.316Z,3.10
2019-02-12T07:24:18.362Z,3.00
2019-02-12T07:25:28.211Z,3.20
2019-02-12T07:26:19.317Z,3.00
2019-02-12T07:27:18.326Z,3.10
2019-02-12T07:28:18.289Z,2.80
2019-02-12T07:29:18.304Z,2.70
2019-02-12T07:30:18.270Z,3.30
2019-02-12T07:31:18.277Z,2.90
2019-02-12T07:32:18.250Z,4.00
2019-02-12T07:33:18.237Z,3.00
2019-02-12T07:34:18.264Z,3.50
2019-02-12T07:35:18.241Z,3.40
2019-02-12T07:36:18.214Z,3.70
2019-02-12T07:37:18.193Z,3.80
2019-02-12T07:38:18.196Z,4.20
2019-02-12T07:39:18.191Z,3.90
2019-02-12T07:40:18.175Z,3.60
2019-02-12T07:41:20.137Z,3.40
2019-02-12T07:42:18.143Z,3.30
2019-02-12T07:43:18.129Z,3.80
2019-02-12T07:44:18.149Z,3.50
2019-02-12T07:45:18.106Z,3.90
2019-02-12T07:46:18.114Z,3.20
2019-02-12T07:47:18.082Z,3.10
2019-02-12T07:48:18.081Z,3.50
2019-02-12T07:49:18.084Z,3.20
2019-02-12T07:50:18.057Z,3.80
2019-02-12T07:51:18.045Z,3.30
2019-02-12T07:52:18.028Z,3.70
2019-02-12T07:53:18.020Z,3.80
2019-02-12T07:54:18.036Z,3.60
2019-02-12T07:55:18.016Z,3.40
2019-02-12T07:56:17.991Z,3.50
2019-02-12T07:57:17.974Z,3.20
2019-02-12T07:58:17.971Z,3.40
2019-02-12T07:59:17.971Z,3.60
2019-02-12T08:00:17.967Z,3.30
2019-02-12T08:01:17.931Z,3.60
2019-02-12T08:04:36.053Z,3.50
2019-02-12T08:13:54.420Z,3.90
2019-02-12T08:14:54.402Z,3.70
2019-02-12T08:15:54.956Z,3.50
2019-02-12T08:16:54.358Z,3.50
2019-02-12T08:17:54.349Z,3.00
2019-02-12T08:18:54.352Z,2.90
2019-02-12T08:19:54.353Z,3.40
2019-02-12T08:20:54.327Z,3.50
2019-02-12T08:21:54.327Z,3.30
2019-02-12T08:22:54.793Z,3.50
2019-02-12T08:23:54.284Z,2.80
2019-02-12T08:24:54.293Z,3.40
2019-02-12T08:25:54.326Z,3.50
2019-02-12T08:26:54.253Z,3.00
2019-02-12T08:27:54.238Z,4.20
2019-02-12T08:28:54.226Z,3.20
2019-02-12T08:29:54.232Z,3.40
2019-02-12T08:30:54.245Z,3.10
2019-02-12T08:31:54.230Z,3.20
2019-02-12T08:32:54.202Z,3.50
2019-02-12T08:33:54.173Z,3.60
2019-02-12T08:34:54.161Z,3.60
2019-02-12T08:35:57.369Z,3.50
2019-02-12T08:36:54.161Z,3.80
2019-02-12T08:37:54.127Z,3.40
2019-02-12T08:38:55.022Z,3.30
2019-02-12T08:39:55.436Z,3.30
2019-02-12T08:40:54.096Z,3.70
2019-02-12T08:41:54.106Z,3.30
2019-02-12T08:42:54.076Z,3.30
2019-02-12T08:43:54.060Z,3.30
2019-02-12T08:44:54.050Z,3.40
2019-02-12T08:45:54.036Z,4.20
2019-02-12T08:46:54.040Z,3.20
2019-02-12T08:47:54.797Z,4.00
2019-02-12T08:48:54.007Z,3.20
2019-02-12T08:49:53.997Z,3.10
2019-02-12T08:50:54.084Z,3.70
2019-02-12T08:51:54.000Z,3.00
2019-02-12T08:52:53.960Z,3.30
2019-02-12T08:53:53.971Z,3.20
2019-02-12T08:54:53.945Z,2.90
2019-02-12T08:55:53.945Z,3.10
2019-02-12T08:56:53.910Z,2.90
2019-02-12T08:57:53.926Z,3.80
2019-02-12T08:58:53.944Z,3.60
2019-02-12T08:59:53.884Z,3.10
2019-02-12T09:00:53.889Z,3.30
2019-02-12T09:01:53.865Z,3.20
2019-02-12T09:02:53.921Z,3.30
2019-02-12T09:03:53.839Z,3.10
2019-02-12T09:04:53.829Z,3.10
2019-02-12T09:05:53.814Z,3.50
2019-02-12T09:06:53.801Z,3.30
2019-02-12T09:07:53.818Z,3.50
2019-02-12T09:08:53.794Z,3.40
2019-02-12T09:09:53.771Z,3.30
2019-02-12T09:10:53.761Z,3.40
2019-02-12T09:11:53.753Z,3.60
2019-02-12T09:12:53.753Z,3.70
2019-02-12T09:13:53.718Z,3.50
2019-02-12T09:14:53.710Z,3.10
2019-02-12T09:15:53.705Z,3.50
2019-02-12T09:16:53.692Z,3.40
2019-02-12T09:17:53.698Z,3.40
2019-02-12T09:18:53.667Z,3.80
2019-02-12T09:19:53.661Z,3.60
2019-02-12T09:20:53.647Z,3.30
2019-02-12T09:21:53.635Z,3.50
2019-02-12T09:22:53.645Z,3.30
2019-02-12T09:24:00.225Z,3.80
2019-02-12T09:24:54.600Z,3.50
2019-02-12T09:25:53.620Z,3.70
2019-02-12T09:26:53.579Z,3.10
2019-02-12T09:27:53.565Z,3.60
2019-02-12T09:28:53.582Z,3.10
2019-02-12T09:29:53.549Z,3.40
2019-02-12T09:30:53.530Z,3.10
2019-02-12T09:31:54.301Z,3.70
2019-02-12T09:32:53.550Z,3.40
2019-02-12T09:33:53.520Z,3.40
2019-02-12T09:34:53.491Z,3.10
2019-02-12T09:35:53.482Z,3.40
2019-02-12T09:36:53.471Z,2.90
2019-02-12T09:37:53.461Z,3.10
2019-02-12T09:38:53.458Z,3.60
2019-02-12T09:39:53.492Z,3.20
2019-02-12T09:40:53.422Z,3.20
2019-02-12T09:41:53.419Z,3.30
2019-02-12T09:42:53.399Z,3.20
2019-02-12T09:43:53.407Z,2.70
2019-02-12T09:44:53.381Z,3.00
2019-02-12T09:45:53.363Z,3.10
2019-02-12T09:46:53.373Z,3.70
2019-02-12T09:47:53.353Z,3.00
2019-02-12T09:48:55.296Z,3.10
2019-02-12T09:49:54.803Z,3.00
2019-02-12T09:50:53.312Z,3.40
2019-02-12T09:51:53.324Z,3.40
2019-02-12T09:52:53.286Z,3.30
2019-02-12T09:53:53.274Z,3.00
2019-02-12T09:54:54.352Z,3.10
2019-02-12T09:55:53.252Z,3.50
2019-02-12T09:56:53.242Z,3.20
2019-02-12T09:57:53.234Z,2.70
2019-02-12T09:58:53.221Z,3.80
2019-02-12T09:59:53.226Z,3.10
2019-02-12T10:00:53.195Z,2.70
2019-02-12T10:01:53.185Z,3.70
2019-02-12T10:02:53.178Z,3.60
2019-02-12T10:03:53.169Z,3.10
2019-02-12T10:04:53.171Z,3.10
2019-02-12T10:05:53.141Z,3.00
2019-02-12T10:06:53.132Z,3.30
2019-02-12T10:07:53.122Z,3.10
2019-02-12T10:08:55.869Z,3.40
2019-02-12T10:09:53.174Z,3.20
2019-02-12T10:10:53.088Z,2.90
2019-02-12T10:11:53.076Z,3.20
2019-02-12T10:12:53.061Z,3.00
2019-02-12T10:13:53.053Z,3.40
2019-02-12T10:14:53.058Z,3.10
2019-02-12T10:25:12.158Z,3.70
2019-02-12T10:26:12.032Z,3.10
2019-02-12T10:27:12.036Z,3.50
2019-02-12T10:28:12.009Z,3.20
2019-02-12T10:29:12.039Z,2.90
2019-02-12T10:34:02.043Z,2.70
2019-02-12T10:35:01.967Z,3.50
2019-02-12T10:36:01.985Z,2.90
2019-02-12T10:37:01.945Z,2.70
2019-02-12T10:38:01.931Z,2.60
2019-02-12T10:39:01.924Z,3.00
2019-02-12T10:40:01.914Z,2.80
2019-02-12T10:41:01.923Z,2.80
2019-02-12T10:42:01.886Z,3.20
2019-02-12T10:43:01.911Z,3.00
2019-02-12T10:44:01.867Z,3.00
2019-02-12T10:45:01.873Z,3.00
2019-02-12T10:46:01.844Z,2.80
2019-02-12T10:47:01.838Z,3.30
2019-02-12T10:48:01.845Z,2.60
2019-02-12T10:49:01.818Z,2.70
2019-02-12T10:50:01.799Z,2.70
2019-02-12T10:51:01.794Z,2.60
2019-02-12T10:52:01.802Z,2.50
2019-02-12T10:53:01.767Z,3.20
2019-02-12T10:54:01.764Z,2.80
2019-02-12T10:55:01.742Z,2.80
2019-02-12T10:56:01.731Z,2.60
2019-02-12T10:57:01.737Z,2.60
2019-02-12T10:58:01.709Z,2.60
2019-02-12T10:59:01.704Z,2.60
2019-02-12T11:00:01.693Z,2.70
2019-02-12T11:01:01.681Z,2.60
2019-02-12T11:02:01.677Z,2.50
2019-02-12T11:03:01.654Z,2.40
2019-02-12T11:04:01.668Z,2.10
2019-02-12T11:05:01.636Z,2.70
2019-02-12T11:06:01.628Z,2.20
2019-02-12T11:07:01.638Z,2.30
2019-02-12T11:08:01.620Z,2.10
2019-02-12T11:09:01.588Z,2.30
2019-02-12T11:10:01.575Z,2.40
2019-02-12T11:11:01.560Z,2.60
2019-02-12T11:12:01.575Z,3.00
2019-02-12T11:13:01.569Z,3.30
2019-02-12T11:14:01.534Z,2.90
2019-02-12T11:15:01.520Z,3.10
2019-02-12T11:16:01.512Z,2.80
2019-02-12T11:17:01.497Z,2.60
2019-02-12T11:18:01.511Z,2.50
2019-02-12T11:19:01.480Z,2.80
2019-02-12T11:20:01.463Z,2.80
2019-02-12T11:21:01.456Z,2.70
2019-02-12T11:22:01.439Z,2.30
2019-02-12T11:23:01.610Z,2.40
2019-02-12T11:24:01.436Z,2.70
2019-02-12T11:25:01.413Z,2.40
2019-02-12T11:26:01.398Z,2.50
2019-02-12T11:27:01.389Z,2.70
2019-02-12T11:28:01.397Z,2.10
2019-02-12T11:29:01.366Z,2.50
2019-02-12T11:30:01.361Z,2.10
2019-02-12T11:31:01.361Z,2.00
2019-02-12T11:32:02.077Z,2.10
2019-02-12T11:33:02.376Z,2.20
2019-02-12T11:34:01.328Z,2.10
2019-02-12T11:35:01.298Z,2.20
2019-02-12T11:36:01.287Z,2.20
2019-02-12T11:37:01.277Z,2.60
2019-02-12T11:38:01.266Z,2.10
2019-02-12T11:39:01.277Z,2.00
2019-02-12T11:40:01.251Z,2.40
2019-02-12T11:41:01.230Z,2.30
2019-02-12T11:42:01.217Z,2.50
2019-02-12T11:43:01.214Z,2.50
2019-02-12T11:44:01.219Z,2.40
2019-02-12T11:45:01.201Z,2.40
2019-02-12T11:46:01.177Z,2.50
2019-02-12T11:47:01.166Z,2.40
2019-02-12T11:48:01.152Z,2.40
2019-02-12T11:49:01.173Z,2.50
2019-02-12T11:50:01.130Z,2.20
2019-02-12T11:51:01.118Z,2.10
2019-02-12T11:52:01.117Z,2.20
2019-02-12T11:53:01.097Z,2.40
2019-02-12T11:54:01.115Z,2.30
2019-02-12T11:55:01.083Z,2.20
2019-02-12T11:56:01.064Z,2.20
2019-02-12T11:57:01.058Z,2.40
2019-02-12T11:58:01.045Z,2.40
2019-02-12T11:59:01.049Z,2.90
2019-02-12T12:00:01.039Z,2.70
2019-02-12T12:01:01.013Z,3.00
2019-02-12T12:02:00.995Z,2.60
2019-02-12T12:03:00.987Z,2.70
2019-02-12T12:04:00.973Z,2.10
2019-02-12T12:05:01.061Z,2.00
2019-02-12T12:06:00.972Z,2.70
2019-02-12T12:07:00.936Z,2.70
2019-02-12T12:08:00.947Z,2.40
2019-02-12T12:09:00.916Z,2.40
2019-02-12T12:10:02.571Z,2.70
2019-02-12T12:11:00.894Z,2.70
2019-02-12T12:12:00.889Z,2.60
2019-02-12T12:13:00.879Z,2.00
2019-02-12T12:14:00.862Z,1.90
2019-02-12T12:15:00.872Z,2.00
2019-02-12T12:16:00.842Z,2.20
2019-02-12T12:17:00.826Z,1.70
2019-02-12T12:18:00.817Z,2.20
2019-02-12T12:19:00.802Z,2.20
2019-02-12T12:20:00.814Z,2.10
2019-02-12T12:21:00.783Z,2.00
2019-02-12T12:22:00.773Z,2.30
2019-02-12T12:23:00.765Z,2.40
2019-02-12T12:24:00.753Z,2.30
2019-02-12T12:25:00.753Z,2.40
2019-02-12T12:26:00.733Z,2.50
2019-02-12T12:27:00.721Z,2.30
2019-02-12T12:28:00.707Z,2.70
2019-02-12T12:29:00.695Z,2.60
2019-02-12T12:30:00.718Z,2.60
2019-02-12T12:31:00.673Z,2.40
2019-02-12T12:32:00.658Z,2.50
2019-02-12T12:33:00.652Z,2.60
2019-02-12T12:34:00.642Z,2.60
2019-02-12T12:35:00.652Z,2.50
2019-02-12T12:36:00.616Z,2.40
2019-02-12T12:37:00.613Z,2.30
2019-02-12T12:38:00.611Z,2.30
2019-02-12T12:39:00.584Z,2.50
2019-02-12T12:40:00.607Z,2.60
2019-02-12T12:41:00.573Z,2.60
2019-02-12T12:42:00.553Z,2.20
2019-02-12T12:43:00.545Z,2.30
2019-02-12T12:44:00.539Z,2.00
2019-02-12T12:45:00.550Z,2.30
2019-02-12T12:46:00.520Z,2.50
2019-02-12T12:47:00.496Z,2.30
2019-02-12T12:48:00.493Z,2.30
2019-02-12T12:49:00.478Z,2.40
2019-02-12T12:50:00.486Z,2.30
2019-02-12T12:51:00.460Z,2.80
2019-02-12T12:52:00.473Z,2.30
2019-02-12T12:53:00.432Z,2.80
2019-02-12T12:54:00.422Z,3.00
2019-02-12T12:55:00.472Z,2.60
2019-02-12T12:56:00.397Z,2.50
2019-02-12T12:57:00.386Z,2.50
2019-02-12T12:58:00.377Z,2.60
2019-02-12T12:59:00.370Z,2.70
2019-02-12T13:00:00.465Z,2.60
2019-02-12T13:01:00.368Z,2.70
2019-02-12T13:02:00.343Z,2.80
2019-02-12T13:03:00.319Z,2.70
2019-02-12T13:04:00.308Z,2.80
2019-02-12T13:05:00.359Z,2.40
2019-02-12T13:06:00.307Z,2.50
2019-02-12T13:07:00.274Z,2.40
2019-02-12T13:08:00.265Z,2.60
2019-02-12T13:09:00.255Z,2.90
2019-02-12T13:10:00.328Z,2.60
2019-02-12T13:11:00.255Z,2.20
2019-02-12T13:12:00.217Z,2.20
2019-02-12T13:13:00.208Z,2.60
2019-02-12T13:14:00.207Z,2.60
2019-02-12T13:15:00.342Z,2.70
2019-02-12T13:16:00.193Z,2.40
2019-02-12T13:17:00.169Z,2.60
2019-02-12T13:18:00.150Z,2.60
2019-02-12T13:19:00.139Z,2.50
2019-02-12T13:20:00.302Z,2.50
2019-02-12T13:21:00.132Z,2.40
2019-02-12T13:22:01.404Z,2.50
2019-02-12T13:23:00.098Z,2.30
2019-02-12T13:24:00.094Z,2.40
2019-02-12T13:25:15.467Z,2.60
2019-02-12T13:26:00.555Z,2.30
2019-02-12T13:35:07.287Z,2.80
2019-02-12T13:35:46.392Z,2.70
2019-02-12T13:36:49.218Z,2.40
2019-02-12T13:43:31.429Z,2.80
2019-02-12T13:44:31.364Z,2.70
2019-02-12T13:45:31.422Z,2.40
2019-02-12T13:50:55.431Z,3.10
2019-02-12T13:51:31.884Z,2.70
2019-02-12T13:52:35.891Z,1.90
2019-02-12T14:14:30.279Z,3.40
2019-02-12T14:24:56.138Z,2.30
2019-02-12T14:25:56.113Z,3.00
2019-02-12T14:26:56.122Z,2.60
2019-02-12T14:27:56.095Z,2.70
2019-02-12T14:28:59.109Z,2.90
2019-02-12T14:35:19.564Z,2.20
2019-02-12T14:36:19.557Z,2.90
2019-02-12T14:39:37.700Z,3.00
2019-02-12T14:40:37.689Z,2.70
2019-02-12T14:41:37.659Z,2.90
2019-02-12T14:42:37.695Z,2.60
2019-02-12T14:43:40.187Z,3.10
2019-02-12T14:44:37.653Z,3.10
2019-02-12T14:45:37.612Z,3.00
2019-02-12T14:46:37.611Z,2.70
2019-02-12T14:47:37.607Z,3.40
2019-02-12T14:48:37.581Z,2.70
2019-02-12T14:49:37.569Z,2.70
2019-02-12T14:50:37.556Z,2.70
2019-02-12T14:51:37.551Z,2.90
2019-02-12T14:52:37.553Z,2.60
2019-02-12T14:53:37.526Z,2.60
2019-02-12T14:54:37.516Z,2.50
2019-02-12T14:55:37.503Z,2.60
2019-02-12T14:56:37.495Z,2.60
2019-02-12T14:57:37.494Z,3.30
2019-02-12T14:58:37.498Z,2.90
2019-02-12T14:59:37.461Z,2.70
2019-02-12T15:00:37.446Z,2.30
2019-02-12T15:01:37.431Z,2.80
2019-02-12T15:02:37.446Z,2.40
2019-02-12T15:03:37.420Z,2.30